Aviation Digital Data Service (ADDS)

Output produced by METARs form (2223 UTC 01 February 2023)
found at http://www.aviationweather.gov/metar/data/
 
KAVL 012154Z 34009KT 10SM -RA OVC022 07/04 A3018 RMK AO2 RAB37 SLP219 P0000 T00720039
KAVL 011939Z 0120/0218 34006KT P6SM SCT026 BKN120 
     TEMPO 0120/0123 BKN026 
     FM012300 34005KT P6SM OVC017 
     FM020100 34006KT P6SM OVC006 
     FM020300 14004KT 4SM BR OVC003 
     FM020700 14004KT 3SM -RA BR OVC004